createdAt,value
2023-12-12T00:02:27.377Z,66.62
2023-12-12T00:07:31.232Z,66.16
2023-12-12T00:12:35.589Z,66.85
2023-12-12T00:17:40.403Z,65.59
2023-12-12T00:22:43.515Z,66.10
2023-12-12T00:27:47.636Z,65.86
2023-12-12T00:32:50.672Z,65.43
2023-12-12T00:37:56.406Z,65.88
2023-12-12T00:42:59.668Z,66.17
2023-12-12T00:48:03.244Z,65.75
2023-12-12T00:53:06.934Z,65.85
2023-12-12T00:58:09.990Z,66.53
2023-12-12T01:03:13.024Z,66.70
2023-12-12T01:08:16.835Z,66.22
2023-12-12T01:13:20.083Z,66.19
2023-12-12T01:18:23.668Z,65.95
2023-12-12T01:23:27.179Z,66.04
2023-12-12T01:28:30.126Z,65.75
2023-12-12T01:33:33.369Z,65.68
2023-12-12T01:38:36.927Z,66.50
2023-12-12T01:43:39.875Z,66.33
2023-12-12T01:48:43.038Z,66.38
2023-12-12T01:53:49.676Z,65.97
2023-12-12T01:58:53.853Z,66.36
2023-12-12T02:03:57.948Z,66.13
2023-12-12T02:09:01.396Z,65.83
2023-12-12T02:14:04.530Z,66.26
2023-12-12T02:19:07.799Z,66.09
2023-12-12T02:24:31.165Z,65.52
2023-12-12T02:29:35.203Z,66.09
2023-12-12T02:34:38.127Z,66.03
2023-12-12T02:39:43.263Z,65.87
2023-12-12T02:44:46.282Z,65.75
2023-12-12T02:49:49.461Z,65.99
2023-12-12T02:54:53.090Z,66.09
2023-12-12T02:59:55.929Z,65.35
2023-12-12T03:04:59.428Z,65.65
2023-12-12T03:10:03.006Z,66.02
2023-12-12T03:15:06.945Z,66.22
2023-12-12T03:20:10.224Z,65.96
2023-12-12T03:25:14.700Z,65.80
2023-12-12T03:30:17.719Z,65.88
2023-12-12T03:35:20.625Z,65.81
2023-12-12T03:40:24.293Z,65.85
2023-12-12T03:45:27.262Z,65.45
2023-12-12T03:50:30.270Z,65.95
2023-12-12T03:55:33.636Z,65.47
2023-12-12T04:00:36.497Z,65.73
2023-12-12T04:05:39.725Z,65.43
2023-12-12T04:10:43.546Z,65.14
2023-12-12T04:15:46.457Z,65.44
2023-12-12T04:20:49.584Z,65.14
2023-12-12T04:25:53.740Z,64.23
2023-12-12T04:30:56.818Z,64.21
2023-12-12T04:36:00.878Z,63.93
2023-12-12T04:41:07.521Z,64.58
2023-12-12T04:46:11.076Z,64.57
2023-12-12T04:51:14.744Z,63.88
2023-12-12T04:56:18.698Z,63.77
2023-12-12T05:01:21.842Z,63.52
2023-12-12T05:06:25.340Z,63.01
2023-12-12T05:11:30.769Z,63.39
2023-12-12T05:16:34.306Z,63.22
2023-12-12T05:21:37.223Z,63.91
2023-12-12T05:26:41.008Z,63.92
2023-12-12T05:31:44.050Z,64.54
2023-12-12T05:36:46.971Z,64.38
2023-12-12T05:41:50.288Z,63.87
2023-12-12T05:46:54.368Z,63.71
2023-12-12T05:51:57.688Z,64.62
2023-12-12T05:57:01.359Z,63.72
2023-12-12T06:02:05.652Z,63.67
2023-12-12T06:07:08.664Z,63.65
2023-12-12T06:12:13.095Z,63.00
2023-12-12T06:17:15.965Z,62.86
2023-12-12T06:22:19.051Z,62.01
2023-12-12T06:27:25.073Z,62.98
2023-12-12T06:32:28.157Z,63.45
2023-12-12T06:37:31.602Z,63.09
2023-12-12T06:42:37.086Z,63.89
2023-12-12T06:47:40.227Z,61.88
2023-12-12T06:52:43.223Z,61.54
2023-12-12T06:57:47.220Z,62.14
2023-12-12T07:02:50.242Z,62.57
2023-12-12T07:07:53.205Z,61.68
2023-12-12T07:12:56.897Z,61.78
2023-12-12T07:17:59.790Z,62.84
2023-12-12T07:23:03.104Z,63.05
2023-12-12T07:28:07.085Z,62.51
2023-12-12T07:33:10.385Z,63.28
2023-12-12T07:38:13.682Z,63.08
2023-12-12T07:43:16.461Z,63.19
2023-12-12T07:48:19.824Z,63.79
2023-12-12T07:53:23.288Z,62.53
2023-12-12T07:58:26.949Z,64.40
2023-12-12T08:03:30.022Z,63.67
2023-12-12T08:08:33.640Z,64.94
2023-12-12T08:13:37.148Z,64.01
2023-12-12T08:18:42.074Z,63.65
2023-12-12T08:23:46.187Z,64.48
2023-12-12T08:28:50.836Z,64.34
2023-12-12T08:33:54.823Z,65.17
2023-12-12T08:38:59.824Z,64.20
2023-12-12T08:44:02.800Z,65.21
2023-12-12T08:49:06.005Z,64.30
2023-12-12T08:54:09.455Z,64.19
2023-12-12T08:59:13.655Z,64.74
2023-12-12T09:04:18.243Z,65.18
2023-12-12T09:09:24.800Z,65.89
2023-12-12T09:14:29.400Z,66.13
2023-12-12T09:19:33.358Z,65.15
2023-12-12T09:24:38.448Z,65.00
2023-12-12T09:29:43.284Z,65.93
2023-12-12T09:34:46.207Z,65.39
2023-12-12T09:39:50.718Z,65.46
2023-12-12T09:45:00.966Z,65.91
2023-12-12T09:50:06.158Z,66.34
2023-12-12T09:55:12.063Z,66.00
2023-12-12T10:00:16.047Z,65.78
2023-12-12T10:05:19.648Z,66.33
2023-12-12T10:10:24.021Z,66.15
2023-12-12T10:15:28.327Z,66.43
2023-12-12T10:20:33.158Z,65.83
2023-12-12T10:25:38.312Z,66.00
2023-12-12T10:30:42.242Z,66.53
2023-12-12T10:35:47.018Z,66.12
2023-12-12T10:40:50.894Z,67.13
2023-12-12T10:45:55.124Z,67.05
2023-12-12T10:51:00.932Z,66.74
2023-12-12T10:56:06.584Z,66.61
2023-12-12T11:01:15.829Z,66.60
2023-12-12T11:06:21.044Z,67.23
2023-12-12T11:11:25.355Z,67.86
2023-12-12T11:16:29.340Z,66.79
2023-12-12T11:21:47.111Z,67.53
2023-12-12T11:26:54.874Z,67.02
2023-12-12T11:32:05.756Z,67.26
2023-12-12T11:37:10.351Z,68.49
2023-12-12T11:42:19.985Z,67.97
2023-12-12T11:47:25.851Z,69.04
2023-12-12T11:52:39.851Z,68.27
2023-12-12T11:57:43.356Z,68.16
2023-12-12T12:02:46.519Z,67.98
2023-12-12T12:07:50.059Z,68.85
2023-12-12T12:12:54.523Z,68.85
2023-12-12T12:17:59.292Z,68.29
2023-12-12T12:23:02.833Z,68.34
2023-12-12T12:28:07.269Z,68.17
2023-12-12T12:33:11.435Z,69.80
2023-12-12T12:38:24.911Z,68.59
2023-12-12T12:43:27.999Z,69.18
2023-12-12T12:48:31.750Z,68.59
2023-12-12T12:53:35.567Z,68.59
2023-12-12T12:58:39.082Z,69.78
2023-12-12T13:03:42.950Z,69.12
2023-12-12T13:08:47.884Z,69.38
2023-12-12T13:13:52.285Z,69.24
2023-12-12T13:18:56.239Z,68.35
2023-12-12T13:24:00.035Z,69.61
2023-12-12T13:29:02.961Z,69.01
2023-12-12T13:34:07.604Z,68.55
2023-12-12T13:39:17.148Z,67.83
2023-12-12T13:44:22.468Z,68.70
2023-12-12T13:49:26.034Z,68.87
2023-12-12T13:54:30.131Z,68.04
2023-12-12T13:59:33.863Z,68.13
2023-12-12T14:04:37.485Z,68.60
2023-12-12T14:09:42.462Z,67.99
2023-12-12T14:14:45.914Z,68.21
2023-12-12T14:19:49.740Z,67.83
2023-12-12T14:24:53.926Z,68.08
2023-12-12T14:29:58.503Z,68.49
2023-12-12T14:35:02.154Z,68.55
2023-12-12T14:40:08.125Z,67.86
2023-12-12T14:45:13.722Z,68.60
2023-12-12T14:50:18.318Z,68.40
2023-12-12T14:55:22.991Z,67.53
2023-12-12T15:00:27.954Z,68.55
2023-12-12T15:05:31.466Z,68.11
2023-12-12T15:10:35.422Z,68.49
2023-12-12T15:15:38.422Z,67.60
2023-12-12T15:20:41.857Z,68.15
2023-12-12T15:25:46.389Z,67.64
2023-12-12T15:30:49.500Z,67.77
2023-12-12T15:35:53.066Z,68.12
2023-12-12T15:40:56.656Z,67.94
2023-12-12T15:46:00.653Z,67.76
2023-12-12T15:51:06.490Z,68.44
2023-12-12T15:56:14.105Z,68.29
2023-12-12T16:01:17.172Z,67.93
2023-12-12T16:06:20.072Z,68.68
2023-12-12T16:11:25.356Z,67.81
2023-12-12T16:16:28.799Z,68.53
2023-12-12T16:21:33.329Z,67.90
2023-12-12T16:26:38.251Z,68.02
2023-12-12T16:31:41.739Z,68.15
2023-12-12T16:36:49.783Z,68.42
2023-12-12T16:41:58.250Z,67.96
2023-12-12T16:47:01.689Z,68.27
2023-12-12T16:52:05.852Z,68.68
2023-12-12T16:57:10.397Z,67.90
2023-12-12T17:02:13.449Z,68.42
2023-12-12T17:07:17.094Z,67.95
2023-12-12T17:12:22.758Z,67.81
2023-12-12T17:17:25.757Z,68.33
2023-12-12T17:22:31.748Z,68.59
2023-12-12T17:27:35.778Z,67.95
2023-12-12T17:32:39.842Z,68.57
2023-12-12T17:37:43.593Z,68.75
2023-12-12T17:42:47.761Z,68.29
2023-12-12T17:47:51.728Z,68.58
2023-12-12T17:52:54.683Z,68.68
2023-12-12T17:57:59.495Z,68.25
2023-12-12T18:03:02.532Z,68.17
2023-12-12T18:08:07.396Z,68.34
2023-12-12T18:13:10.438Z,68.66
2023-12-12T18:18:14.279Z,68.58
2023-12-12T18:23:18.396Z,68.58
2023-12-12T18:28:21.375Z,68.06
2023-12-12T18:33:25.229Z,68.22
2023-12-12T18:38:29.253Z,68.42
2023-12-12T18:43:32.295Z,68.48
2023-12-12T18:48:37.429Z,68.36
2023-12-12T18:53:41.145Z,68.35
2023-12-12T18:58:44.631Z,68.51
2023-12-12T19:03:49.482Z,68.15
2023-12-12T19:08:53.506Z,68.16
2023-12-12T19:13:56.626Z,68.58
2023-12-12T19:18:59.650Z,68.25
2023-12-12T19:24:03.338Z,68.37
2023-12-12T19:29:06.248Z,68.48
2023-12-12T19:34:09.605Z,68.46
2023-12-12T19:39:14.959Z,68.81
2023-12-12T19:44:17.878Z,68.75
2023-12-12T19:49:22.139Z,68.09
2023-12-12T19:54:27.030Z,68.65
2023-12-12T19:59:30.074Z,68.26
2023-12-12T20:04:33.114Z,68.62
2023-12-12T20:09:36.336Z,68.15
2023-12-12T20:14:39.459Z,68.76
2023-12-12T20:19:44.510Z,68.34
2023-12-12T20:24:48.484Z,68.89
2023-12-12T20:29:51.458Z,68.47
2023-12-12T20:34:54.510Z,68.42
2023-12-12T20:39:58.005Z,68.07
2023-12-12T20:45:05.382Z,68.03
2023-12-12T20:50:11.434Z,68.16
2023-12-12T20:55:15.306Z,68.62
2023-12-12T21:00:20.831Z,67.65
2023-12-12T21:05:26.464Z,68.15
2023-12-12T21:10:30.842Z,68.11
2023-12-12T21:15:33.994Z,68.34
2023-12-12T21:20:37.013Z,67.68
2023-12-12T21:25:40.425Z,68.18
2023-12-12T21:30:43.462Z,67.91
2023-12-12T21:35:46.931Z,67.63
2023-12-12T21:40:50.391Z,67.74
2023-12-12T21:45:54.544Z,67.67
2023-12-12T21:50:57.508Z,67.96
2023-12-12T21:56:00.709Z,68.19
2023-12-12T22:01:04.087Z,67.68
2023-12-12T22:06:07.861Z,67.50
2023-12-12T22:11:22.391Z,67.27
2023-12-12T22:16:27.153Z,66.79
2023-12-12T22:21:30.274Z,67.36
2023-12-12T22:26:33.737Z,67.44
2023-12-12T22:31:41.634Z,67.27
2023-12-12T22:36:46.797Z,67.11
2023-12-12T22:41:49.982Z,66.99
2023-12-12T22:46:53.123Z,67.29
2023-12-12T22:51:55.952Z,66.27
2023-12-12T22:56:59.806Z,66.76
2023-12-12T23:02:06.191Z,67.36
2023-12-12T23:07:09.320Z,67.00
2023-12-12T23:12:12.836Z,67.39
2023-12-12T23:17:16.090Z,66.84
2023-12-12T23:22:19.075Z,66.69
2023-12-12T23:27:22.520Z,67.01
2023-12-12T23:32:25.378Z,66.52
2023-12-12T23:37:29.613Z,67.24
2023-12-12T23:42:33.338Z,66.58
2023-12-12T23:47:37.331Z,66.35
2023-12-12T23:52:40.413Z,66.51
2023-12-12T23:57:45.223Z,66.46
